Terminal Aerodrome Forecast
Issued by NWS

Home | Current Version | Previous Version | Text Only | Print | Product List | Glossary On
Versions: 1 2 3 4 5 6 7 8 9 10 11 12 13 14 15 16 17 18 19 20 21 22 23 24 25
000
FTUS43 KGRB 222300
TAFAUW
TAF
KAUW 222331Z 2300/2324 05004KT P6SM SCT015
     FM230200 VRB03KT 4SM BR BKN015
     FM230500 VRB03KT 1SM BR OVC003
      TEMPO 2309/2313 1/2SM FG OVC002
     FM231400 10006KT 4SM BR OVC004
     FM231600 10008KT 6SM BR BKN015
     FM231900 10006KT P6SM BKN030=

USA.gov is the U.S. government's official web portal to all federal, state and local government web resources and services.